createdAt,value
2023-02-15T00:01:49.868Z,99740.09
2023-02-15T00:04:20.015Z,99716.22
2023-02-15T00:06:47.336Z,99743.91
2023-02-15T00:09:14.128Z,99661.72
2023-02-15T00:11:41.970Z,99639.50
2023-02-15T00:14:11.576Z,99448.28
2023-02-15T00:16:41.231Z,99434.25
2023-02-15T00:19:13.046Z,99692.00
2023-02-15T00:21:42.278Z,99626.63
2023-02-15T00:24:11.509Z,99668.13
2023-02-15T00:26:40.839Z,99405.44
2023-02-15T00:29:08.337Z,99562.22
2023-02-15T00:31:36.502Z,99729.03
2023-02-15T00:34:12.714Z,99726.66
2023-02-15T00:36:53.737Z,99725.91
2023-02-15T00:39:28.751Z,99676.59
2023-02-15T00:42:01.941Z,99711.81
2023-02-15T00:44:36.246Z,99689.78
2023-02-15T00:47:10.912Z,99710.09
2023-02-15T00:50:06.400Z,99664.69
2023-02-15T00:52:39.081Z,99723.63
2023-02-15T00:55:09.096Z,99710.00
2023-02-15T00:57:35.706Z,99715.53
2023-02-15T01:00:02.619Z,99668.75
2023-02-15T01:02:29.486Z,99643.78
2023-02-15T01:04:56.270Z,99607.13
2023-02-15T01:07:23.046Z,99712.84
2023-02-15T01:09:49.945Z,99714.41
2023-02-15T01:12:16.690Z,99570.66
2023-02-15T01:14:43.569Z,99674.16
2023-02-15T01:17:10.483Z,99643.13
2023-02-15T01:19:38.970Z,99654.78
2023-02-15T01:22:06.960Z,99608.31
2023-02-15T01:24:35.813Z,99713.28
2023-02-15T01:27:02.767Z,99546.34
2023-02-15T01:29:31.287Z,99647.41
2023-02-15T01:31:58.787Z,99692.97
2023-02-15T01:34:25.551Z,99670.94
2023-02-15T01:36:52.243Z,99617.63
2023-02-15T01:39:19.099Z,99609.41
2023-02-15T01:41:45.882Z,99637.84
2023-02-15T01:44:46.786Z,99676.66
2023-02-15T01:47:23.839Z,99577.81
2023-02-15T01:50:01.139Z,99476.03
2023-02-15T01:52:28.545Z,99615.13
2023-02-15T01:54:55.465Z,99600.34
2023-02-15T01:57:27.790Z,99614.97
2023-02-15T01:59:57.689Z,99540.50
2023-02-15T02:02:24.675Z,99602.38
2023-02-15T02:04:57.767Z,99437.16
2023-02-15T02:07:29.510Z,99526.59
2023-02-15T02:09:56.134Z,99598.72
2023-02-15T02:12:26.583Z,99669.69
2023-02-15T02:14:54.465Z,99515.88
2023-02-15T02:17:45.618Z,99663.94
2023-02-15T02:20:45.160Z,99657.25
2023-02-15T02:23:39.152Z,99659.50
2023-02-15T02:26:05.790Z,99649.31
2023-02-15T02:29:01.582Z,99644.16
2023-02-15T02:31:50.062Z,99650.75
2023-02-15T02:34:30.162Z,99636.06
2023-02-15T02:37:18.102Z,99605.66
2023-02-15T02:40:00.493Z,99637.00
2023-02-15T02:42:51.605Z,99540.19
2023-02-15T02:45:30.156Z,99636.94
2023-02-15T02:48:20.888Z,99527.06
2023-02-15T02:50:49.520Z,99251.47
2023-02-15T02:53:16.856Z,99563.38
2023-02-15T02:55:47.094Z,99634.41
2023-02-15T02:58:35.941Z,99635.78
2023-02-15T03:01:13.798Z,99626.63
2023-02-15T03:03:46.972Z,99636.81
2023-02-15T03:06:20.055Z,99627.88
2023-02-15T03:08:51.056Z,99633.34
2023-02-15T03:11:18.332Z,99513.06
2023-02-15T03:13:48.483Z,99558.88
2023-02-15T03:16:19.045Z,99588.47
2023-02-15T03:18:56.747Z,99620.78
2023-02-15T03:21:31.103Z,99448.72
2023-02-15T03:24:23.547Z,99498.03
2023-02-15T03:26:52.815Z,99504.38
2023-02-15T03:29:23.058Z,99555.31
2023-02-15T03:31:58.539Z,99515.66
2023-02-15T03:34:25.614Z,99331.28
2023-02-15T03:37:12.525Z,99486.53
2023-02-15T03:40:24.520Z,99504.47
2023-02-15T03:43:09.803Z,99612.47
2023-02-15T03:45:39.302Z,99614.44
2023-02-15T03:48:07.292Z,99422.28
2023-02-15T03:50:38.276Z,99431.50
2023-02-15T03:53:08.735Z,99605.56
2023-02-15T03:55:36.718Z,99584.13
2023-02-15T03:58:04.444Z,99403.28
2023-02-15T04:00:33.983Z,99535.69
2023-02-15T04:03:23.770Z,99590.56
2023-02-15T04:05:50.533Z,99506.03
2023-02-15T04:08:17.171Z,99568.13
2023-02-15T04:10:44.027Z,99497.03
2023-02-15T04:13:10.630Z,99477.16
2023-02-15T04:15:37.300Z,99376.50
2023-02-15T04:18:04.455Z,99417.50
2023-02-15T04:20:31.252Z,99517.75
2023-02-15T04:22:57.961Z,99541.38
2023-02-15T04:25:24.842Z,99429.38
2023-02-15T04:27:54.066Z,99226.75
2023-02-15T04:30:23.660Z,99585.47
2023-02-15T04:32:50.340Z,99532.78
2023-02-15T04:35:17.290Z,99537.78
2023-02-15T04:37:44.946Z,99584.19
2023-02-15T04:40:14.040Z,99581.25
2023-02-15T04:42:41.012Z,99396.28
2023-02-15T04:45:08.611Z,99379.88
2023-02-15T04:47:35.351Z,99226.16
2023-02-15T04:50:02.036Z,99555.56
2023-02-15T04:52:28.686Z,99448.22
2023-02-15T04:54:56.147Z,99479.56
2023-02-15T04:57:22.714Z,99517.72
2023-02-15T04:59:49.392Z,99502.69
2023-02-15T05:02:16.091Z,99271.66
2023-02-15T05:04:42.992Z,99543.44
2023-02-15T05:07:09.621Z,99367.84
2023-02-15T05:09:36.583Z,99485.34
2023-02-15T05:12:03.280Z,99466.06
2023-02-15T05:14:29.956Z,99477.75
2023-02-15T05:16:57.051Z,99526.84
2023-02-15T05:19:23.818Z,99442.00
2023-02-15T05:21:50.556Z,99210.91
2023-02-15T05:24:17.468Z,99173.03
2023-02-15T05:26:44.072Z,99475.75
2023-02-15T05:29:11.759Z,99095.28
2023-02-15T05:31:39.153Z,99549.63
2023-02-15T05:34:06.206Z,99543.94
2023-02-15T05:36:32.788Z,99506.81
2023-02-15T05:38:59.489Z,99483.84
2023-02-15T05:41:26.066Z,99400.34
2023-02-15T05:43:52.729Z,99547.03
2023-02-15T05:46:19.479Z,99469.66
2023-02-15T05:48:46.273Z,99417.00
2023-02-15T05:51:14.249Z,99546.97
2023-02-15T05:53:41.535Z,99432.44
2023-02-15T05:56:10.462Z,99548.31
2023-02-15T05:58:42.679Z,99550.31
2023-02-15T06:01:15.410Z,99550.03
2023-02-15T06:03:42.336Z,99489.00
2023-02-15T06:06:09.194Z,99502.38
2023-02-15T06:08:36.831Z,99441.91
2023-02-15T06:11:03.671Z,99545.75
2023-02-15T06:13:30.801Z,99452.53
2023-02-15T06:15:57.452Z,99554.91
2023-02-15T06:18:24.476Z,99485.63
2023-02-15T06:20:51.369Z,99185.25
2023-02-15T06:23:18.613Z,99444.19
2023-02-15T06:25:46.888Z,99558.06
2023-02-15T06:28:14.810Z,99556.47
2023-02-15T06:30:41.473Z,99367.69
2023-02-15T06:33:08.322Z,99455.91
2023-02-15T06:35:34.940Z,99463.88
2023-02-15T06:38:01.591Z,99562.66
2023-02-15T06:40:28.168Z,99576.72
2023-02-15T06:42:55.015Z,99461.28
2023-02-15T06:45:21.833Z,99573.31
2023-02-15T06:47:48.533Z,99523.09
2023-02-15T06:50:15.178Z,99453.88
2023-02-15T06:52:41.819Z,99032.88
2023-02-15T06:55:08.603Z,99450.91
2023-02-15T06:57:35.281Z,99555.41
2023-02-15T07:00:01.983Z,99307.09
2023-02-15T07:02:28.974Z,99551.81
2023-02-15T07:04:56.050Z,99455.69
2023-02-15T07:07:22.912Z,99496.19
2023-02-15T07:09:49.623Z,99547.03
2023-02-15T07:12:16.679Z,99479.66
2023-02-15T07:14:43.297Z,99221.34
2023-02-15T07:17:27.448Z,99483.50
2023-02-15T07:19:57.077Z,99485.00
2023-02-15T07:22:23.741Z,99245.50
2023-02-15T07:24:50.393Z,99512.53
2023-02-15T07:27:17.107Z,99552.41
2023-02-15T07:29:43.773Z,99451.19
2023-02-15T07:32:10.424Z,99441.38
2023-02-15T07:34:37.138Z,99440.41
2023-02-15T07:37:03.854Z,99276.69
2023-02-15T07:39:30.812Z,99482.59
2023-02-15T07:41:57.498Z,99528.09
2023-02-15T07:44:30.647Z,99514.16
2023-02-15T07:46:57.270Z,99495.22
2023-02-15T07:49:26.068Z,99498.63
2023-02-15T07:51:52.879Z,99449.38
2023-02-15T07:57:21.435Z,99406.47
2023-02-15T07:59:51.838Z,99554.47
2023-02-15T08:02:18.963Z,99432.69
2023-02-15T08:04:45.619Z,99252.81
2023-02-15T08:07:12.511Z,99539.84
2023-02-15T08:09:41.151Z,99430.03
2023-02-15T08:12:10.555Z,99538.63
2023-02-15T08:14:37.931Z,99532.41
2023-02-15T08:17:04.667Z,99425.94
2023-02-15T08:19:33.392Z,99545.13
2023-02-15T08:22:02.845Z,99438.34
2023-02-15T08:24:32.267Z,99515.34
2023-02-15T08:26:59.520Z,99385.97
2023-02-15T08:29:30.969Z,99479.59
2023-02-15T08:32:03.401Z,99537.66
2023-02-15T08:34:32.574Z,99525.06
2023-02-15T08:36:59.496Z,99403.53
2023-02-15T08:39:26.333Z,99410.00
2023-02-15T08:41:53.407Z,99459.94
2023-02-15T08:44:20.879Z,99518.91
2023-02-15T08:46:49.744Z,99519.72
2023-02-15T08:49:19.074Z,99505.66
2023-02-15T08:51:47.080Z,99073.53
2023-02-15T08:54:16.236Z,99340.44
2023-02-15T08:56:44.444Z,99446.63
2023-02-15T08:59:22.972Z,99510.78
2023-02-15T09:01:51.545Z,99450.41
2023-02-15T09:04:19.012Z,99224.28
2023-02-15T09:06:49.082Z,99490.31
2023-02-15T09:09:17.965Z,98872.06
2023-02-15T09:11:47.358Z,99495.31
2023-02-15T09:14:18.120Z,99424.22
2023-02-15T09:20:02.190Z,99498.75
2023-02-15T09:22:31.620Z,99477.13
2023-02-15T09:25:00.821Z,99329.69
2023-02-15T09:27:29.826Z,99509.78
2023-02-15T09:29:56.845Z,99466.59
2023-02-15T09:32:26.306Z,99509.06
2023-02-15T09:35:01.006Z,99507.72
2023-02-15T09:37:28.794Z,99401.16
2023-02-15T09:39:56.484Z,99512.28
2023-02-15T09:42:31.200Z,99509.16
2023-02-15T09:45:10.076Z,99513.03
2023-02-15T09:47:54.451Z,99505.19
2023-02-15T09:50:42.763Z,99506.53
2023-02-15T09:53:31.333Z,99495.31
2023-02-15T09:56:23.842Z,99488.63
2023-02-15T09:59:18.732Z,99488.44
2023-02-15T10:02:13.616Z,99484.28
2023-02-15T10:05:20.996Z,99272.22
2023-02-15T10:08:24.633Z,99472.19
2023-02-15T10:17:45.212Z,99355.25
2023-02-15T10:20:59.199Z,99473.84
2023-02-15T10:23:45.720Z,99342.81
2023-02-15T10:26:16.607Z,99347.69
2023-02-15T10:32:07.850Z,99423.16
2023-02-15T10:34:57.267Z,98411.41
2023-02-15T10:37:55.034Z,99446.78
2023-02-15T10:40:30.718Z,99452.59
2023-02-15T10:43:42.110Z,99457.09
2023-02-15T10:46:39.793Z,99448.47
2023-02-15T10:49:14.885Z,99444.38
2023-02-15T10:52:08.449Z,99439.41
2023-02-15T10:54:44.216Z,99430.94
2023-02-15T10:57:28.214Z,99427.56
2023-02-15T10:59:57.640Z,99431.59
2023-02-15T11:02:44.501Z,99427.94
2023-02-15T11:05:35.284Z,99420.06
2023-02-15T11:08:06.973Z,99417.13
2023-02-15T11:10:40.200Z,99409.13
2023-02-15T11:13:14.360Z,99328.41
2023-02-15T11:16:03.272Z,99390.41
2023-02-15T11:18:41.420Z,99348.38
2023-02-15T11:21:14.697Z,99397.97
2023-02-15T11:23:44.982Z,99404.63
2023-02-15T11:26:22.997Z,99406.25
2023-02-15T11:28:56.326Z,99397.34
2023-02-15T11:31:25.798Z,99393.38
2023-02-15T11:34:01.128Z,99393.59
2023-02-15T11:36:39.409Z,99385.72
2023-02-15T11:39:12.851Z,99381.16
2023-02-15T11:41:53.623Z,99385.19
2023-02-15T11:44:38.432Z,99388.25
2023-02-15T11:47:12.169Z,99395.75
2023-02-15T11:49:39.352Z,99353.34
2023-02-15T11:52:08.513Z,99395.25
2023-02-15T11:54:37.887Z,99388.91
2023-02-15T11:57:18.937Z,99391.34
2023-02-15T11:59:53.660Z,99346.09
2023-02-15T12:02:22.911Z,99391.66
2023-02-15T12:04:57.815Z,99383.31
2023-02-15T12:07:29.467Z,99379.72
2023-02-15T12:10:00.679Z,99376.00
2023-02-15T12:12:29.182Z,99381.19
2023-02-15T12:14:57.924Z,99376.75
2023-02-15T12:17:28.836Z,99380.44
2023-02-15T12:20:02.529Z,99371.16
2023-02-15T12:22:33.475Z,99364.53
2023-02-15T12:25:03.030Z,99368.53
2023-02-15T12:27:33.041Z,99375.59
2023-02-15T12:30:04.896Z,99379.03
2023-02-15T12:32:36.244Z,99374.06
2023-02-15T12:35:10.287Z,99365.53
2023-02-15T12:37:37.111Z,99366.94
2023-02-15T12:40:31.607Z,99362.66
2023-02-15T12:42:58.821Z,99369.31
2023-02-15T12:45:28.387Z,99361.25
2023-02-15T12:48:19.856Z,99352.84
2023-02-15T12:50:55.698Z,99345.16
2023-02-15T12:53:34.176Z,99352.84
2023-02-15T12:56:02.155Z,99352.47
2023-02-15T12:58:29.560Z,99351.31
2023-02-15T13:01:11.247Z,99346.34
2023-02-15T13:03:57.779Z,99351.53
2023-02-15T13:06:25.180Z,99352.34
2023-02-15T13:08:54.752Z,99357.78
2023-02-15T13:11:26.662Z,99352.88
2023-02-15T13:13:56.390Z,99348.25
2023-02-15T13:16:30.591Z,99339.84
2023-02-15T13:18:59.681Z,99345.44
2023-02-15T13:21:33.027Z,99334.50
2023-02-15T13:24:08.529Z,99351.34
2023-02-15T13:26:36.255Z,99350.50
2023-02-15T13:29:30.784Z,99350.78
2023-02-15T13:32:11.614Z,99356.56
2023-02-15T13:34:40.813Z,99337.56
2023-02-15T13:37:22.791Z,99357.31
2023-02-15T13:40:00.238Z,99351.38
2023-02-15T13:42:39.731Z,99344.19
2023-02-15T13:45:30.443Z,99340.91
2023-02-15T13:48:15.730Z,99295.75
2023-02-15T13:50:48.668Z,99343.38
2023-02-15T13:53:27.181Z,99344.19
2023-02-15T13:56:00.339Z,99343.38
2023-02-15T13:58:49.717Z,99331.78
2023-02-15T14:01:28.320Z,99324.84
2023-02-15T14:04:06.964Z,99320.94
2023-02-15T14:06:53.012Z,99325.94
2023-02-15T14:09:39.661Z,99292.41
2023-02-15T14:12:30.479Z,99324.56
2023-02-15T14:14:59.985Z,99317.16
2023-02-15T14:18:00.404Z,99298.38
2023-02-15T14:20:42.377Z,99304.44
2023-02-15T14:23:57.372Z,99297.53
2023-02-15T14:26:30.245Z,99297.00
2023-02-15T14:28:56.854Z,99298.25
2023-02-15T14:31:37.547Z,99278.91
2023-02-15T14:34:04.222Z,99292.28
2023-02-15T14:36:32.325Z,99286.03
2023-02-15T14:39:27.151Z,99287.81
2023-02-15T14:42:00.673Z,99271.47
2023-02-15T14:44:37.563Z,99290.31
2023-02-15T14:47:12.538Z,99285.38
2023-02-15T14:49:40.996Z,99291.25
2023-02-15T14:52:11.209Z,99290.91
2023-02-15T14:54:37.860Z,99286.34
2023-02-15T14:57:04.453Z,99281.53
2023-02-15T14:59:51.164Z,99282.09
2023-02-15T15:02:22.788Z,99279.34
2023-02-15T15:05:09.218Z,99288.03
2023-02-15T15:07:49.042Z,99289.13
2023-02-15T15:10:18.382Z,99288.72
2023-02-15T15:12:52.610Z,99290.31
2023-02-15T15:15:28.620Z,99295.84
2023-02-15T15:17:58.119Z,99285.38
2023-02-15T15:20:27.681Z,99301.19
2023-02-15T15:23:16.016Z,99290.50
2023-02-15T15:25:59.183Z,99287.03
2023-02-15T15:28:34.960Z,99288.09
2023-02-15T15:31:06.868Z,99283.75
2023-02-15T15:34:11.490Z,99280.63
2023-02-15T15:37:03.324Z,99279.97
2023-02-15T15:40:29.187Z,99274.03
2023-02-15T15:43:25.046Z,99272.06
2023-02-15T15:46:00.388Z,99273.47
2023-02-15T15:48:36.272Z,99270.50
2023-02-15T15:51:33.059Z,99265.09
2023-02-15T15:54:02.662Z,99256.53
2023-02-15T15:56:34.426Z,99258.84
2023-02-15T15:59:08.472Z,99259.28
2023-02-15T16:01:46.624Z,99257.88
2023-02-15T16:04:22.876Z,99249.63
2023-02-15T16:06:49.574Z,99249.25
2023-02-15T16:09:24.947Z,99260.78
2023-02-15T16:11:55.002Z,99262.25
2023-02-15T16:14:37.101Z,99264.59
2023-02-15T16:17:08.051Z,99260.47
2023-02-15T16:19:40.980Z,99264.09
2023-02-15T16:22:15.010Z,99252.88
2023-02-15T16:25:18.717Z,99261.41
2023-02-15T16:27:47.289Z,99269.31
2023-02-15T16:30:36.451Z,99273.25
2023-02-15T16:33:17.385Z,99270.69
2023-02-15T16:35:57.653Z,99268.63
2023-02-15T16:38:42.781Z,99266.66
2023-02-15T16:41:13.553Z,99276.06
2023-02-15T16:43:42.948Z,99276.19
2023-02-15T16:46:16.899Z,99233.34
2023-02-15T16:48:47.470Z,99246.41
2023-02-15T16:51:25.341Z,99278.88
2023-02-15T16:53:55.650Z,99269.66
2023-02-15T16:56:29.355Z,99282.16
2023-02-15T16:58:57.846Z,99275.63
2023-02-15T17:01:28.421Z,99282.16
2023-02-15T17:04:14.547Z,99280.47
2023-02-15T17:06:41.514Z,99254.91
2023-02-15T17:09:17.420Z,99281.75
2023-02-15T17:11:45.032Z,99283.88
2023-02-15T17:14:14.874Z,99278.41
2023-02-15T17:16:55.854Z,99225.22
2023-02-15T17:19:28.917Z,99282.00
2023-02-15T17:22:02.457Z,99264.94
2023-02-15T17:24:36.822Z,99279.00
2023-02-15T17:27:10.186Z,99281.63
2023-02-15T17:29:41.425Z,99283.03
2023-02-15T17:32:17.757Z,99269.22
2023-02-15T17:35:07.094Z,99228.38
2023-02-15T17:37:36.931Z,99287.56
2023-02-15T17:40:33.478Z,99290.88
2023-02-15T17:43:00.581Z,99284.47
2023-02-15T17:45:33.739Z,99288.03
2023-02-15T17:48:04.019Z,99281.06
2023-02-15T17:50:31.041Z,99280.34
2023-02-15T17:52:58.778Z,99257.81
2023-02-15T17:55:25.989Z,99289.59
2023-02-15T17:57:52.612Z,99288.47
2023-02-15T18:00:19.618Z,99294.59
2023-02-15T18:02:47.029Z,99289.25
2023-02-15T18:05:14.588Z,99269.13
2023-02-15T18:07:41.190Z,99283.91
2023-02-15T18:10:19.072Z,99289.56
2023-02-15T18:12:45.743Z,99292.78
2023-02-15T18:15:13.110Z,99290.00
2023-02-15T18:17:45.575Z,99290.75
2023-02-15T18:20:20.268Z,99288.03
2023-02-15T18:22:47.410Z,99289.06
2023-02-15T18:25:15.716Z,99285.34
2023-02-15T18:27:42.530Z,99218.44
2023-02-15T18:30:15.305Z,99284.47
2023-02-15T18:32:42.715Z,99233.81
2023-02-15T18:35:16.346Z,99284.72
2023-02-15T18:37:43.454Z,99285.84
2023-02-15T18:40:16.562Z,99305.69
2023-02-15T18:42:43.470Z,99266.59
2023-02-15T18:45:22.257Z,99300.06
2023-02-15T18:47:49.202Z,99292.69
2023-02-15T18:50:18.111Z,99293.34
2023-02-15T18:52:50.567Z,99288.25
2023-02-15T18:55:23.482Z,99285.66
2023-02-15T18:57:52.666Z,99283.06
2023-02-15T19:00:22.677Z,99288.47
2023-02-15T19:02:49.378Z,99279.94
2023-02-15T19:05:16.755Z,99282.84
2023-02-15T19:07:44.565Z,99270.03
2023-02-15T19:10:18.913Z,99268.50
2023-02-15T19:12:45.786Z,99254.25
2023-02-15T19:15:20.130Z,99243.78
2023-02-15T19:17:47.070Z,99266.00
2023-02-15T19:20:20.554Z,99286.78
2023-02-15T19:22:49.024Z,99272.50
2023-02-15T19:25:23.804Z,99220.84
2023-02-15T19:27:51.640Z,99259.09
2023-02-15T19:30:21.539Z,99268.56
2023-02-15T19:32:48.344Z,99282.41
2023-02-15T19:35:20.634Z,99280.94
2023-02-15T19:37:50.081Z,99223.94
2023-02-15T19:40:24.330Z,99275.72
2023-02-15T19:42:51.518Z,99263.91
2023-02-15T19:45:29.541Z,99267.19
2023-02-15T19:47:56.619Z,99254.66
2023-02-15T19:50:26.227Z,99262.72
2023-02-15T19:52:53.163Z,99260.13
2023-02-15T19:55:25.842Z,99266.34
2023-02-15T19:57:53.848Z,99261.75
2023-02-15T20:00:23.001Z,99244.50
2023-02-15T20:02:49.830Z,99261.28
2023-02-15T20:05:16.472Z,99267.00
2023-02-15T20:07:46.879Z,99259.53
2023-02-15T20:10:31.199Z,99251.34
2023-02-15T20:12:58.496Z,99254.88
2023-02-15T20:15:30.060Z,99262.38
2023-02-15T20:17:58.936Z,99260.41
2023-02-15T20:20:44.495Z,99257.41
2023-02-15T20:23:17.478Z,99260.50
2023-02-15T20:25:44.192Z,99254.44
2023-02-15T20:28:24.080Z,99257.88
2023-02-15T20:30:51.392Z,99258.84
2023-02-15T20:33:19.383Z,99263.53
2023-02-15T20:35:46.891Z,99254.84
2023-02-15T20:38:26.038Z,99253.06
2023-02-15T20:40:53.756Z,99257.22
2023-02-15T20:43:20.367Z,99268.81
2023-02-15T20:45:46.984Z,99267.44
2023-02-15T20:48:13.789Z,99267.69
2023-02-15T20:50:40.541Z,99279.31
2023-02-15T20:53:09.774Z,99263.91
2023-02-15T20:55:36.527Z,99240.81
2023-02-15T20:58:13.139Z,99266.50
2023-02-15T21:00:40.404Z,99264.50
2023-02-15T21:03:12.147Z,99263.28
2023-02-15T21:05:39.051Z,99250.81
2023-02-15T21:08:13.839Z,99232.44
2023-02-15T21:10:41.919Z,99272.63
2023-02-15T21:13:22.255Z,99268.81
2023-02-15T21:15:51.169Z,99272.69
2023-02-15T21:18:24.386Z,99274.16
2023-02-15T21:20:56.825Z,99280.31
2023-02-15T21:23:26.004Z,99281.25
2023-02-15T21:25:55.185Z,99235.97
2023-02-15T21:28:26.599Z,99283.09
2023-02-15T21:30:55.821Z,99283.00
2023-02-15T21:33:22.448Z,99290.47
2023-02-15T21:35:52.004Z,99287.25
2023-02-15T21:38:21.554Z,99282.03
2023-02-15T21:40:49.629Z,99286.47
2023-02-15T21:43:25.342Z,99276.56
2023-02-15T21:45:53.386Z,99279.47
2023-02-15T21:48:20.078Z,99288.88
2023-02-15T21:50:47.199Z,99222.66
2023-02-15T21:53:21.152Z,99293.75
2023-02-15T21:55:48.484Z,99291.59
2023-02-15T21:58:19.876Z,99289.41
2023-02-15T22:00:47.010Z,99289.22
2023-02-15T22:03:13.735Z,99288.38
2023-02-15T22:05:40.451Z,99287.66
2023-02-15T22:08:13.743Z,99281.19
2023-02-15T22:10:41.599Z,99190.31
2023-02-15T22:13:24.999Z,99292.16
2023-02-15T22:15:51.965Z,99255.16
2023-02-15T22:18:22.030Z,99288.22
2023-02-15T22:20:49.255Z,99286.91
2023-02-15T22:23:15.927Z,99285.78
2023-02-15T22:25:47.282Z,99272.44
2023-02-15T22:28:14.138Z,99269.06
2023-02-15T22:30:40.777Z,99272.94
2023-02-15T22:33:21.254Z,99214.22
2023-02-15T22:35:47.934Z,99259.50
2023-02-15T22:38:14.627Z,99259.34
2023-02-15T22:40:41.548Z,99251.81
2023-02-15T22:43:19.995Z,99245.97
2023-02-15T22:45:46.807Z,99253.53
2023-02-15T22:48:17.968Z,99247.84
2023-02-15T22:50:44.750Z,99250.81
2023-02-15T22:53:11.339Z,99238.00
2023-02-15T22:55:38.675Z,99222.03
2023-02-15T22:58:07.007Z,99244.44
2023-02-15T23:00:38.757Z,99244.13
2023-02-15T23:03:21.399Z,99246.34
2023-02-15T23:05:48.250Z,99244.88
2023-02-15T23:08:15.208Z,99242.44
2023-02-15T23:10:44.082Z,99222.66
2023-02-15T23:13:26.882Z,99246.34
2023-02-15T23:15:57.012Z,99243.06
2023-02-15T23:18:23.588Z,99239.47
2023-02-15T23:21:02.274Z,99185.31
2023-02-15T23:23:33.121Z,99182.59
2023-02-15T23:26:01.952Z,99233.47
2023-02-15T23:28:35.237Z,99226.19
2023-02-15T23:31:03.171Z,99235.91
2023-02-15T23:33:33.432Z,99240.09
2023-02-15T23:36:00.222Z,99225.59
2023-02-15T23:38:29.645Z,99238.47
2023-02-15T23:41:01.754Z,99236.72
2023-02-15T23:43:28.617Z,99236.22
2023-02-15T23:45:55.280Z,99228.31
2023-02-15T23:48:40.352Z,99212.09
2023-02-15T23:51:07.046Z,99245.75
2023-02-15T23:53:33.642Z,99211.25
2023-02-15T23:56:00.423Z,99243.22
2023-02-15T23:58:34.643Z,99248.88
